Sulphur Springs, AR (72768)

1:13 AM CDT on July 04, 2015 (GMT -0500)
Gravette Westside | | Change Station
CLOSE
Current Station
Personal Weather Station
Location: Gravette, AR
Elevation: 1220 ft
Nearby Weather Stations

Elev 1220 ft 36.42 °N, 94.46 °W | Updated 20 seconds ago

Clear
Clear
72.5 °F
Feels Like 72 °F
N
0.0
Wind Variable Wind from North
Gusts 0.0 mph

Today
High -- | Low -- °F
--% Chance of Precip.
Yesterday
High -- | Low -- °F
Precip. -- in
6:04 AM 8:39 PM
Waning Gibbous, 94% visible
Pressure 29.92 in
Visibility 5.0 miles
Clouds Few 4800 ft
Heat Index 72 °F
Dew Point 66 °F
Humidity 81%
Rainfall 0.00 in
Snow Depth Not available.
UV 0 out of 12
Pollen 3.10 out of 12
Air Quality Not available.
Flu Activity Not available.
METAR KXNA 040553Z AUTO 00000KT 5SM BR FEW048 20/20 A2996 RMK AO2 SLP130 T02000200 10244 20200 403060194 50007

More Conditions Fewer Conditions

Pressure 29.92 in
Visibility 5.0 miles
Clouds Few 4800 ft
Heat Index 72 °F
Dew Point 66 °F
Humidity 81%
Rainfall 0.00 in
Snow Depth Not available.
UV 0 out of 12
Pollen 3.10 out of 12
Air Quality Not available.
Flu Activity Not available.
METAR KXNA 040553Z AUTO 00000KT 5SM BR FEW048 20/20 A2996 RMK AO2 SLP130 T02000200 10244 20200 403060194 50007

More Conditions Fewer Conditions

Nowcast | as of 12:25 am CDT on July 4, 2015

At 12:25 am...National Weather Service Doppler radars continued to detect a broken band of thunderstorms extending from southwest of McAlester to near Wilburton. The overall intensity of the storms has decreased over the past hour. All of this activity was moving toward the southeast at around 25 miles per hour. Through 1:30 am...showers and thunderstorms will continue to move across southeast Oklahoma...south of Interstate 40. A brief heavy downpour can be expected with any of the storms...along with gusty winds.

×

10-Day Weather Forecast

×

Almanac

Astronomy

Jul. 04, 2015 Rise Set
Actual Time
Civil Twilight
Nautical Twilight
Astronomical Twilight
Moon
Length of Visible Light
Length of Day
Tomorrow will be .
, % of the Moon is Illuminated

Today's Extremes

State Highs State Lows

Community

WunderPhotos

Upload Photos

1,834,926 photos uploaded!

WunderBlogs® & News

Nearby

Air Quality

  Air Quality AQ Index Pollutant
Not available.

Snow Depth

Station Depth Elevation

Earthquake Activity

City Distance Mag. Time & Date
Minimum magnitude displayed is 2.5.

Coastal Water Temperatures

Place Temperature

Stations

Nearby Weather Stations

Station Location Temp. Windchill Dew Point Humidity Wind Precip. Elev Updated Type